sensor_id;sensor_type;location;lat;lon;timestamp;pressure;altitude;pressure_sealevel;temperature;humidity
1472;BME280;963;42.644;23.336;2023-04-29T00:01:06;94210.69;;;10.55;51.96
1472;BME280;963;42.644;23.336;2023-04-29T00:03:32;94212.66;;;10.61;52.57
1472;BME280;963;42.644;23.336;2023-04-29T00:05:58;94223.44;;;10.53;52.36
1472;BME280;963;42.644;23.336;2023-04-29T00:08:24;94211.72;;;10.47;52.36
1472;BME280;963;42.644;23.336;2023-04-29T00:10:50;94221.53;;;10.50;52.52
1472;BME280;963;42.644;23.336;2023-04-29T00:13:15;94230.53;;;10.49;53.01
1472;BME280;963;42.644;23.336;2023-04-29T00:15:42;94222.22;;;10.47;52.86
1472;BME280;963;42.644;23.336;2023-04-29T00:18:08;94244.31;;;10.42;53.19
1472;BME280;963;42.644;23.336;2023-04-29T00:20:34;94225.72;;;10.31;53.63
1472;BME280;963;42.644;23.336;2023-04-29T00:22:59;94233.97;;;10.30;53.97
1472;BME280;963;42.644;23.336;2023-04-29T00:25:25;94223.28;;;10.19;54.32
1472;BME280;963;42.644;23.336;2023-04-29T00:27:51;94241.22;;;10.14;55.01
1472;BME280;963;42.644;23.336;2023-04-29T00:30:16;94230.75;;;10.17;55.00
1472;BME280;963;42.644;23.336;2023-04-29T00:32:42;94236.75;;;10.18;55.55
1472;BME280;963;42.644;23.336;2023-04-29T00:35:09;94239.69;;;10.13;55.59
1472;BME280;963;42.644;23.336;2023-04-29T00:37:34;94241.16;;;10.10;55.55
1472;BME280;963;42.644;23.336;2023-04-29T00:40:00;94233.56;;;10.05;54.93
1472;BME280;963;42.644;23.336;2023-04-29T00:42:26;94233.91;;;10.03;54.89
1472;BME280;963;42.644;23.336;2023-04-29T00:44:52;94231.28;;;10.03;55.26
1472;BME280;963;42.644;23.336;2023-04-29T00:47:17;94204.81;;;9.93;55.15
1472;BME280;963;42.644;23.336;2023-04-29T00:49:43;94228.34;;;10.09;55.13
1472;BME280;963;42.644;23.336;2023-04-29T00:52:10;94224.56;;;10.06;54.98
1472;BME280;963;42.644;23.336;2023-04-29T00:54:37;94219.53;;;9.97;54.92
1472;BME280;963;42.644;23.336;2023-04-29T00:57:03;94225.78;;;9.89;54.63
1472;BME280;963;42.644;23.336;2023-04-29T00:59:30;94202.34;;;9.81;54.86
1472;BME280;963;42.644;23.336;2023-04-29T01:02:01;94210.28;;;9.84;54.72
1472;BME280;963;42.644;23.336;2023-04-29T01:04:31;94197.28;;;9.68;54.60
1472;BME280;963;42.644;23.336;2023-04-29T01:07:21;94195.56;;;9.57;54.22
1472;BME280;963;42.644;23.336;2023-04-29T01:10:21;94204.75;;;9.47;53.30
1472;BME280;963;42.644;23.336;2023-04-29T01:13:01;94209.59;;;9.26;54.47
1472;BME280;963;42.644;23.336;2023-04-29T01:15:34;94203.44;;;9.18;54.72
1472;BME280;963;42.644;23.336;2023-04-29T01:18:45;94193.16;;;9.09;53.95
1472;BME280;963;42.644;23.336;2023-04-29T01:21:13;94198.41;;;9.09;54.22
1472;BME280;963;42.644;23.336;2023-04-29T01:23:39;94193.59;;;9.12;54.45
1472;BME280;963;42.644;23.336;2023-04-29T01:26:05;94177.28;;;9.22;53.83
1472;BME280;963;42.644;23.336;2023-04-29T01:31:07;94188.75;;;9.33;53.85
1472;BME280;963;42.644;23.336;2023-04-29T01:45:14;94185.69;;;9.50;54.09
1472;BME280;963;42.644;23.336;2023-04-29T01:47:41;94191.34;;;9.52;53.54
1472;BME280;963;42.644;23.336;2023-04-29T01:50:07;94187.50;;;9.46;54.18
1472;BME280;963;42.644;23.336;2023-04-29T01:52:33;94193.16;;;9.48;54.16
1472;BME280;963;42.644;23.336;2023-04-29T01:54:58;94178.66;;;9.35;54.51
1472;BME280;963;42.644;23.336;2023-04-29T01:57:24;94186.59;;;9.38;54.29
1472;BME280;963;42.644;23.336;2023-04-29T01:59:49;94192.63;;;9.39;54.73
1472;BME280;963;42.644;23.336;2023-04-29T02:02:14;94185.03;;;9.34;54.54
1472;BME280;963;42.644;23.336;2023-04-29T02:04:41;94184.09;;;9.26;54.72
1472;BME280;963;42.644;23.336;2023-04-29T02:07:07;94203.25;;;9.27;55.00
1472;BME280;963;42.644;23.336;2023-04-29T02:09:33;94176.78;;;9.16;55.66
1472;BME280;963;42.644;23.336;2023-04-29T02:11:58;94191.22;;;9.26;56.12
1472;BME280;963;42.644;23.336;2023-04-29T02:14:23;94188.59;;;9.26;55.87
1472;BME280;963;42.644;23.336;2023-04-29T02:16:49;94184.53;;;9.28;56.12
1472;BME280;963;42.644;23.336;2023-04-29T02:19:15;94203.34;;;9.30;56.39
1472;BME280;963;42.644;23.336;2023-04-29T02:21:40;94198.84;;;9.31;56.05
1472;BME280;963;42.644;23.336;2023-04-29T02:24:06;94205.88;;;9.27;56.04
1472;BME280;963;42.644;23.336;2023-04-29T02:26:31;94188.59;;;9.26;56.03
1472;BME280;963;42.644;23.336;2023-04-29T02:28:58;94196.69;;;9.17;56.65
1472;BME280;963;42.644;23.336;2023-04-29T02:31:24;94182.94;;;9.04;56.38
1472;BME280;963;42.644;23.336;2023-04-29T02:33:49;94196.75;;;9.01;56.83
1472;BME280;963;42.644;23.336;2023-04-29T02:36:15;94194.66;;;8.91;56.81
1472;BME280;963;42.644;23.336;2023-04-29T02:38:41;94188.16;;;8.85;56.97
1472;BME280;963;42.644;23.336;2023-04-29T02:41:07;94200.88;;;8.83;57.57
1472;BME280;963;42.644;23.336;2023-04-29T02:43:32;94187.06;;;8.86;57.57
1472;BME280;963;42.644;23.336;2023-04-29T02:45:58;94169.81;;;8.85;57.70
1472;BME280;963;42.644;23.336;2023-04-29T02:48:24;94177.41;;;8.90;57.80
1472;BME280;963;42.644;23.336;2023-04-29T02:50:49;94183.34;;;8.87;57.81
1472;BME280;963;42.644;23.336;2023-04-29T02:53:15;94197.97;;;8.88;58.29
1472;BME280;963;42.644;23.336;2023-04-29T02:55:41;94192.94;;;8.80;58.67
1472;BME280;963;42.644;23.336;2023-04-29T02:58:08;94206.53;;;8.85;58.47
1472;BME280;963;42.644;23.336;2023-04-29T03:00:33;94205.34;;;8.83;58.67
1472;BME280;963;42.644;23.336;2023-04-29T03:02:59;94212.31;;;8.75;59.16
1472;BME280;963;42.644;23.336;2023-04-29T03:05:24;94227.63;;;8.73;58.66
1472;BME280;963;42.644;23.336;2023-04-29T03:07:49;94209.13;;;8.66;58.78
1472;BME280;963;42.644;23.336;2023-04-29T03:10:15;94211.94;;;8.57;59.16
1472;BME280;963;42.644;23.336;2023-04-29T03:12:42;94199.75;;;8.49;59.37
1472;BME280;963;42.644;23.336;2023-04-29T03:15:07;94209.56;;;8.52;59.46
1472;BME280;963;42.644;23.336;2023-04-29T03:17:34;94202.66;;;8.44;60.28
1472;BME280;963;42.644;23.336;2023-04-29T03:20:01;94206.78;;;8.45;60.18
1472;BME280;963;42.644;23.336;2023-04-29T03:22:26;94211.69;;;8.46;60.40
1472;BME280;963;42.644;23.336;2023-04-29T03:24:52;94213.22;;;8.48;60.65
1472;BME280;963;42.644;23.336;2023-04-29T03:27:17;94226.56;;;8.42;60.55
1472;BME280;963;42.644;23.336;2023-04-29T03:29:43;94242.31;;;8.42;60.71
1472;BME280;963;42.644;23.336;2023-04-29T03:32:09;94228.09;;;8.43;60.27
1472;BME280;963;42.644;23.336;2023-04-29T03:34:35;94215.69;;;8.40;60.19
1472;BME280;963;42.644;23.336;2023-04-29T03:37:00;94239.50;;;8.51;60.11
1472;BME280;963;42.644;23.336;2023-04-29T03:39:26;94236.53;;;8.53;60.08
1472;BME280;963;42.644;23.336;2023-04-29T03:41:56;94251.84;;;8.51;60.41
1472;BME280;963;42.644;23.336;2023-04-29T03:44:22;94243.28;;;8.54;59.73
1472;BME280;963;42.644;23.336;2023-04-29T03:46:47;94258.19;;;8.50;59.82
1472;BME280;963;42.644;23.336;2023-04-29T03:49:13;94228.78;;;8.40;59.69
1472;BME280;963;42.644;23.336;2023-04-29T03:51:38;94261.00;;;8.41;60.29
1472;BME280;963;42.644;23.336;2023-04-29T03:54:04;94251.00;;;8.46;59.98
1472;BME280;963;42.644;23.336;2023-04-29T03:56:29;94238.31;;;8.49;60.13
1472;BME280;963;42.644;23.336;2023-04-29T03:58:55;94232.56;;;8.43;60.18
1472;BME280;963;42.644;23.336;2023-04-29T04:01:20;94234.03;;;8.40;60.32
1472;BME280;963;42.644;23.336;2023-04-29T04:03:46;94215.06;;;8.31;60.64
1472;BME280;963;42.644;23.336;2023-04-29T04:06:12;94231.97;;;8.50;60.66
1472;BME280;963;42.644;23.336;2023-04-29T04:08:37;94237.81;;;8.43;60.40
1472;BME280;963;42.644;23.336;2023-04-29T04:11:05;94218.97;;;8.37;60.42
1472;BME280;963;42.644;23.336;2023-04-29T04:13:31;94234.94;;;8.48;59.62
1472;BME280;963;42.644;23.336;2023-04-29T04:15:57;94255.31;;;8.55;59.65
1472;BME280;963;42.644;23.336;2023-04-29T04:18:22;94231.72;;;8.55;60.24
1472;BME280;963;42.644;23.336;2023-04-29T04:20:48;94212.94;;;8.53;59.45
1472;BME280;963;42.644;23.336;2023-04-29T04:23:14;94237.72;;;8.71;59.75
1472;BME280;963;42.644;23.336;2023-04-29T04:25:46;94232.47;;;8.71;59.55
1472;BME280;963;42.644;23.336;2023-04-29T04:28:12;94234.66;;;8.69;59.48
1472;BME280;963;42.644;23.336;2023-04-29T04:30:37;94229.00;;;8.67;60.19
1472;BME280;963;42.644;23.336;2023-04-29T04:33:02;94215.91;;;8.67;59.86
1472;BME280;963;42.644;23.336;2023-04-29T04:35:28;94227.25;;;8.90;58.94
1472;BME280;963;42.644;23.336;2023-04-29T04:37:53;94226.56;;;8.93;58.92
1472;BME280;963;42.644;23.336;2023-04-29T04:40:19;94221.00;;;8.95;58.65
1472;BME280;963;42.644;23.336;2023-04-29T04:42:45;94244.41;;;9.03;58.95
1472;BME280;963;42.644;23.336;2023-04-29T04:45:10;94228.88;;;9.14;58.24
1472;BME280;963;42.644;23.336;2023-04-29T04:47:36;94233.91;;;9.23;58.25
1472;BME280;963;42.644;23.336;2023-04-29T04:50:02;94244.81;;;9.25;57.77
1472;BME280;963;42.644;23.336;2023-04-29T04:52:28;94247.09;;;9.26;58.73
1472;BME280;963;42.644;23.336;2023-04-29T04:54:54;94248.78;;;9.34;58.71
1472;BME280;963;42.644;23.336;2023-04-29T04:57:19;94247.31;;;9.37;59.10
1472;BME280;963;42.644;23.336;2023-04-29T04:59:45;94256.38;;;9.39;59.13
1472;BME280;963;42.644;23.336;2023-04-29T05:02:11;94244.41;;;9.42;58.57
1472;BME280;963;42.644;23.336;2023-04-29T05:04:36;94239.94;;;9.43;58.78
1472;BME280;963;42.644;23.336;2023-04-29T05:07:01;94231.78;;;9.48;57.52
1472;BME280;963;42.644;23.336;2023-04-29T05:09:27;94226.19;;;9.30;58.00
1472;BME280;963;42.644;23.336;2023-04-29T05:11:53;94217.63;;;9.33;57.89
1472;BME280;963;42.644;23.336;2023-04-29T05:14:18;94213.19;;;9.37;58.08
1472;BME280;963;42.644;23.336;2023-04-29T05:16:44;94213.75;;;9.46;57.35
1472;BME280;963;42.644;23.336;2023-04-29T05:19:11;94210.53;;;9.56;57.44
1472;BME280;963;42.644;23.336;2023-04-29T05:21:36;94206.94;;;9.64;57.43
1472;BME280;963;42.644;23.336;2023-04-29T05:24:02;94199.25;;;9.75;57.56
1472;BME280;963;42.644;23.336;2023-04-29T05:26:28;94197.91;;;9.85;56.87
1472;BME280;963;42.644;23.336;2023-04-29T05:28:53;94196.53;;;9.91;56.10
1472;BME280;963;42.644;23.336;2023-04-29T05:31:20;94212.88;;;10.03;55.03
1472;BME280;963;42.644;23.336;2023-04-29T05:33:45;94196.81;;;9.86;55.06
1472;BME280;963;42.644;23.336;2023-04-29T05:36:11;94209.84;;;9.79;55.01
1472;BME280;963;42.644;23.336;2023-04-29T05:38:36;94188.81;;;9.36;56.18
1472;BME280;963;42.644;23.336;2023-04-29T05:41:02;94188.19;;;9.66;55.99
1472;BME280;963;42.644;23.336;2023-04-29T05:43:28;94208.09;;;9.86;54.84
1472;BME280;963;42.644;23.336;2023-04-29T05:45:53;94189.81;;;9.93;54.48
1472;BME280;963;42.644;23.336;2023-04-29T05:48:20;94177.63;;;10.05;54.84
1472;BME280;963;42.644;23.336;2023-04-29T05:50:45;94175.03;;;10.08;54.83
1472;BME280;963;42.644;23.336;2023-04-29T05:53:12;94193.31;;;10.24;54.37
1472;BME280;963;42.644;23.336;2023-04-29T05:55:38;94192.66;;;10.30;54.42
1472;BME280;963;42.644;23.336;2023-04-29T05:58:03;94216.84;;;10.40;53.64
1472;BME280;963;42.644;23.336;2023-04-29T06:00:29;94218.38;;;10.41;53.84
1472;BME280;963;42.644;23.336;2023-04-29T06:02:55;94198.97;;;10.49;53.85
1472;BME280;963;42.644;23.336;2023-04-29T06:05:21;94218.03;;;10.69;53.01
1472;BME280;963;42.644;23.336;2023-04-29T06:07:47;94193.41;;;10.54;52.45
1472;BME280;963;42.644;23.336;2023-04-29T06:10:12;94197.41;;;10.44;52.58
1472;BME280;963;42.644;23.336;2023-04-29T06:12:37;94205.31;;;10.21;54.01
1472;BME280;963;42.644;23.336;2023-04-29T06:15:03;94202.19;;;10.39;53.66
1472;BME280;963;42.644;23.336;2023-04-29T06:17:29;94203.63;;;10.59;53.30
1472;BME280;963;42.644;23.336;2023-04-29T06:19:54;94193.84;;;10.10;53.38
1472;BME280;963;42.644;23.336;2023-04-29T06:22:20;94200.47;;;10.50;53.10
1472;BME280;963;42.644;23.336;2023-04-29T06:24:46;94185.47;;;10.50;53.03
1472;BME280;963;42.644;23.336;2023-04-29T06:27:14;94194.75;;;10.71;52.43
1472;BME280;963;42.644;23.336;2023-04-29T06:29:40;94188.63;;;10.89;52.30
1472;BME280;963;42.644;23.336;2023-04-29T06:32:05;94196.28;;;11.02;52.27
1472;BME280;963;42.644;23.336;2023-04-29T06:34:31;94199.88;;;11.16;51.33
1472;BME280;963;42.644;23.336;2023-04-29T06:36:56;94192.44;;;11.25;51.60
1472;BME280;963;42.644;23.336;2023-04-29T06:39:24;94186.19;;;11.37;51.72
1472;BME280;963;42.644;23.336;2023-04-29T06:41:50;94196.44;;;11.46;51.39
1472;BME280;963;42.644;23.336;2023-04-29T06:44:16;94191.28;;;11.56;51.18
1472;BME280;963;42.644;23.336;2023-04-29T06:46:42;94188.50;;;11.42;51.64
1472;BME280;963;42.644;23.336;2023-04-29T06:49:08;94185.41;;;11.70;51.36
1472;BME280;963;42.644;23.336;2023-04-29T06:51:35;94178.09;;;11.90;49.86
1472;BME280;963;42.644;23.336;2023-04-29T06:54:17;94185.66;;;11.95;48.66
1472;BME280;963;42.644;23.336;2023-04-29T06:56:49;94184.16;;;11.94;49.68
1472;BME280;963;42.644;23.336;2023-04-29T06:59:14;94207.63;;;12.10;49.40
1472;BME280;963;42.644;23.336;2023-04-29T07:01:40;94184.28;;;12.12;49.21
1472;BME280;963;42.644;23.336;2023-04-29T07:04:05;94182.09;;;12.21;48.69
1472;BME280;963;42.644;23.336;2023-04-29T07:06:31;94152.03;;;11.81;49.44
1472;BME280;963;42.644;23.336;2023-04-29T07:08:56;94165.31;;;11.92;50.20
1472;BME280;963;42.644;23.336;2023-04-29T07:11:22;94180.31;;;11.88;49.96
1472;BME280;963;42.644;23.336;2023-04-29T07:13:49;94174.13;;;12.14;49.40
1472;BME280;963;42.644;23.336;2023-04-29T07:16:16;94170.44;;;12.26;49.38
1472;BME280;963;42.644;23.336;2023-04-29T07:18:44;94155.88;;;12.39;49.29
1472;BME280;963;42.644;23.336;2023-04-29T07:21:09;94144.88;;;12.30;49.18
1472;BME280;963;42.644;23.336;2023-04-29T07:23:34;94168.75;;;12.51;48.97
1472;BME280;963;42.644;23.336;2023-04-29T07:26:10;94162.81;;;12.65;48.61
1472;BME280;963;42.644;23.336;2023-04-29T07:28:36;94169.56;;;12.07;49.49
1472;BME280;963;42.644;23.336;2023-04-29T07:31:01;94185.59;;;12.32;48.58
1472;BME280;963;42.644;23.336;2023-04-29T07:33:27;94168.03;;;12.54;48.65
1472;BME280;963;42.644;23.336;2023-04-29T07:35:52;94167.25;;;12.53;49.66
1472;BME280;963;42.644;23.336;2023-04-29T07:38:18;94166.63;;;12.71;49.63
1472;BME280;963;42.644;23.336;2023-04-29T07:40:45;94178.03;;;12.93;49.19
1472;BME280;963;42.644;23.336;2023-04-29T07:43:10;94155.09;;;12.35;48.89
1472;BME280;963;42.644;23.336;2023-04-29T07:45:37;94166.41;;;12.35;49.31
1472;BME280;963;42.644;23.336;2023-04-29T07:48:04;94154.47;;;12.59;48.87
1472;BME280;963;42.644;23.336;2023-04-29T07:50:30;94166.38;;;12.32;49.04
1472;BME280;963;42.644;23.336;2023-04-29T07:52:55;94149.69;;;12.75;48.27
1472;BME280;963;42.644;23.336;2023-04-29T07:55:22;94145.97;;;12.91;47.91
1472;BME280;963;42.644;23.336;2023-04-29T07:57:47;94143.13;;;13.24;47.36
1472;BME280;963;42.644;23.336;2023-04-29T08:00:13;94151.50;;;13.40;46.72
1472;BME280;963;42.644;23.336;2023-04-29T08:02:38;94161.72;;;13.67;45.97
1472;BME280;963;42.644;23.336;2023-04-29T08:05:04;94150.44;;;13.77;46.23
1472;BME280;963;42.644;23.336;2023-04-29T08:07:29;94136.84;;;13.96;45.08
1472;BME280;963;42.644;23.336;2023-04-29T08:09:55;94147.03;;;14.08;44.62
1472;BME280;963;42.644;23.336;2023-04-29T08:12:21;94154.22;;;14.19;43.72
1472;BME280;963;42.644;23.336;2023-04-29T08:14:46;94139.09;;;14.30;43.58
1472;BME280;963;42.644;23.336;2023-04-29T08:17:12;94151.19;;;13.99;43.37
1472;BME280;963;42.644;23.336;2023-04-29T08:19:37;94142.88;;;14.18;42.67
1472;BME280;963;42.644;23.336;2023-04-29T08:22:02;94139.84;;;14.02;41.26
1472;BME280;963;42.644;23.336;2023-04-29T08:24:28;94128.53;;;14.23;41.79
1472;BME280;963;42.644;23.336;2023-04-29T08:26:54;94135.31;;;14.24;42.67
1472;BME280;963;42.644;23.336;2023-04-29T08:29:19;94139.09;;;14.51;42.03
1472;BME280;963;42.644;23.336;2023-04-29T08:31:45;94126.22;;;14.60;42.74
1472;BME280;963;42.644;23.336;2023-04-29T08:34:11;94131.44;;;14.82;42.61
1472;BME280;963;42.644;23.336;2023-04-29T08:36:37;94146.56;;;14.85;42.25
1472;BME280;963;42.644;23.336;2023-04-29T08:39:03;94134.41;;;15.05;41.57
1472;BME280;963;42.644;23.336;2023-04-29T08:41:33;94145.75;;;15.06;38.97
1472;BME280;963;42.644;23.336;2023-04-29T08:43:58;94133.34;;;14.92;39.90
1472;BME280;963;42.644;23.336;2023-04-29T08:46:25;94132.22;;;14.75;40.52
1472;BME280;963;42.644;23.336;2023-04-29T08:48:51;94131.91;;;14.30;40.14
1472;BME280;963;42.644;23.336;2023-04-29T08:51:17;94132.25;;;14.72;40.09
1472;BME280;963;42.644;23.336;2023-04-29T08:53:42;94109.50;;;14.88;40.73
1472;BME280;963;42.644;23.336;2023-04-29T08:56:15;94110.97;;;15.00;40.07
1472;BME280;963;42.644;23.336;2023-04-29T08:58:42;94109.06;;;15.04;40.21
1472;BME280;963;42.644;23.336;2023-04-29T09:01:08;94110.94;;;15.07;40.59
1472;BME280;963;42.644;23.336;2023-04-29T09:03:41;94113.09;;;15.33;39.83
1472;BME280;963;42.644;23.336;2023-04-29T09:06:09;94096.38;;;15.44;39.43
1472;BME280;963;42.644;23.336;2023-04-29T09:08:36;94106.06;;;15.75;39.74
1472;BME280;963;42.644;23.336;2023-04-29T09:11:02;94093.13;;;15.81;39.10
1472;BME280;963;42.644;23.336;2023-04-29T09:13:29;94095.94;;;16.08;37.76
1472;BME280;963;42.644;23.336;2023-04-29T09:15:55;94082.19;;;16.20;37.82
1472;BME280;963;42.644;23.336;2023-04-29T09:18:44;94100.97;;;16.40;37.72
1472;BME280;963;42.644;23.336;2023-04-29T09:21:20;94097.97;;;16.34;38.23
1472;BME280;963;42.644;23.336;2023-04-29T09:23:49;94095.56;;;16.50;37.65
1472;BME280;963;42.644;23.336;2023-04-29T09:26:15;94093.88;;;16.67;36.83
1472;BME280;963;42.644;23.336;2023-04-29T09:28:41;94097.50;;;16.84;35.76
1472;BME280;963;42.644;23.336;2023-04-29T09:31:10;94088.78;;;16.83;35.20
1472;BME280;963;42.644;23.336;2023-04-29T09:33:55;94085.38;;;16.83;34.68
1472;BME280;963;42.644;23.336;2023-04-29T09:36:45;94076.97;;;16.88;34.17
1472;BME280;963;42.644;23.336;2023-04-29T09:39:15;94074.78;;;16.42;34.77
1472;BME280;963;42.644;23.336;2023-04-29T09:44:20;94067.44;;;16.91;34.09
1472;BME280;963;42.644;23.336;2023-04-29T09:49:48;94068.06;;;16.68;34.55
1472;BME280;963;42.644;23.336;2023-04-29T09:52:15;94072.97;;;16.73;35.36
1472;BME280;963;42.644;23.336;2023-04-29T09:54:42;94063.38;;;16.82;35.44
1472;BME280;963;42.644;23.336;2023-04-29T09:57:10;94058.78;;;16.86;36.57
1472;BME280;963;42.644;23.336;2023-04-29T09:59:37;94044.44;;;17.11;35.93
1472;BME280;963;42.644;23.336;2023-04-29T10:02:16;94061.06;;;17.42;35.80
1472;BME280;963;42.644;23.336;2023-04-29T10:04:52;94043.97;;;17.70;34.97
1472;BME280;963;42.644;23.336;2023-04-29T10:07:19;94031.16;;;17.88;35.37
1472;BME280;963;42.644;23.336;2023-04-29T10:09:46;94033.16;;;18.04;34.87
1472;BME280;963;42.644;23.336;2023-04-29T10:12:15;94031.59;;;18.30;34.38
1472;BME280;963;42.644;23.336;2023-04-29T10:14:47;94024.56;;;18.39;34.11
1472;BME280;963;42.644;23.336;2023-04-29T10:17:44;94013.75;;;18.47;33.50
1472;BME280;963;42.644;23.336;2023-04-29T10:20:08;94019.88;;;18.67;33.63
1472;BME280;963;42.644;23.336;2023-04-29T10:22:47;94025.03;;;18.94;33.54
1472;BME280;963;42.644;23.336;2023-04-29T10:25:18;94018.56;;;18.75;34.02
1472;BME280;963;42.644;23.336;2023-04-29T10:27:44;94011.44;;;18.88;33.47
1472;BME280;963;42.644;23.336;2023-04-29T10:30:14;94004.69;;;19.03;33.22
1472;BME280;963;42.644;23.336;2023-04-29T10:32:41;94014.28;;;19.17;32.44
1472;BME280;963;42.644;23.336;2023-04-29T10:35:09;94016.19;;;19.17;32.54
1472;BME280;963;42.644;23.336;2023-04-29T10:37:36;94000.94;;;19.17;32.42
1472;BME280;963;42.644;23.336;2023-04-29T10:40:11;94009.00;;;18.97;32.33
1472;BME280;963;42.644;23.336;2023-04-29T10:45:17;93996.69;;;19.20;31.84
1472;BME280;963;42.644;23.336;2023-04-29T10:50:31;94019.03;;;19.26;32.13
1472;BME280;963;42.644;23.336;2023-04-29T10:53:00;94007.19;;;19.11;32.46
1472;BME280;963;42.644;23.336;2023-04-29T10:55:26;93995.84;;;19.07;32.49
1472;BME280;963;42.644;23.336;2023-04-29T10:57:52;93997.28;;;19.11;32.53
1472;BME280;963;42.644;23.336;2023-04-29T11:00:28;94005.22;;;18.95;33.14
1472;BME280;963;42.644;23.336;2023-04-29T11:02:54;93996.84;;;18.96;33.08
1472;BME280;963;42.644;23.336;2023-04-29T11:05:31;94011.34;;;19.12;32.91
1472;BME280;963;42.644;23.336;2023-04-29T11:10:47;93999.59;;;19.09;33.40
1472;BME280;963;42.644;23.336;2023-04-29T11:13:26;93993.44;;;19.12;32.37
1472;BME280;963;42.644;23.336;2023-04-29T11:16:13;93993.19;;;19.23;32.68
1472;BME280;963;42.644;23.336;2023-04-29T11:19:06;93998.19;;;19.04;32.50
1472;BME280;963;42.644;23.336;2023-04-29T11:21:36;93981.34;;;19.08;31.60
1472;BME280;963;42.644;23.336;2023-04-29T11:24:05;94010.63;;;18.91;31.40
1472;BME280;963;42.644;23.336;2023-04-29T11:26:34;93995.19;;;18.83;31.23
1472;BME280;963;42.644;23.336;2023-04-29T11:29:00;93999.78;;;18.82;31.46
1472;BME280;963;42.644;23.336;2023-04-29T11:31:30;94000.78;;;18.88;31.51
1472;BME280;963;42.644;23.336;2023-04-29T11:33:57;93997.78;;;18.86;31.00
1472;BME280;963;42.644;23.336;2023-04-29T11:36:22;93986.53;;;18.79;31.33
1472;BME280;963;42.644;23.336;2023-04-29T11:38:48;93995.09;;;18.70;31.35
1472;BME280;963;42.644;23.336;2023-04-29T11:41:14;94003.81;;;18.70;31.04
1472;BME280;963;42.644;23.336;2023-04-29T11:43:40;93988.31;;;18.65;31.11
1472;BME280;963;42.644;23.336;2023-04-29T11:46:13;93989.91;;;18.63;30.97
1472;BME280;963;42.644;23.336;2023-04-29T11:48:45;93983.88;;;18.59;30.74
1472;BME280;963;42.644;23.336;2023-04-29T11:51:15;93984.19;;;18.41;31.60
1472;BME280;963;42.644;23.336;2023-04-29T11:53:41;93996.13;;;18.53;31.51
1472;BME280;963;42.644;23.336;2023-04-29T11:56:10;93987.00;;;18.54;31.04
1472;BME280;963;42.644;23.336;2023-04-29T11:58:36;93995.47;;;18.49;31.73
1472;BME280;963;42.644;23.336;2023-04-29T12:01:06;94001.94;;;18.48;31.93
1472;BME280;963;42.644;23.336;2023-04-29T12:03:35;94007.16;;;18.35;32.50
1472;BME280;963;42.644;23.336;2023-04-29T12:06:01;93983.09;;;18.38;32.28
1472;BME280;963;42.644;23.336;2023-04-29T12:08:28;93988.03;;;18.40;32.60
1472;BME280;963;42.644;23.336;2023-04-29T12:10:56;93973.69;;;18.34;32.47
1472;BME280;963;42.644;23.336;2023-04-29T12:13:24;93983.59;;;18.33;32.42
1472;BME280;963;42.644;23.336;2023-04-29T12:15:51;93976.91;;;18.25;33.05
1472;BME280;963;42.644;23.336;2023-04-29T12:18:18;93992.88;;;18.25;33.62
1472;BME280;963;42.644;23.336;2023-04-29T12:20:44;93975.28;;;18.08;34.57
1472;BME280;963;42.644;23.336;2023-04-29T12:23:14;93985.75;;;18.19;35.18
1472;BME280;963;42.644;23.336;2023-04-29T12:25:40;93974.34;;;18.18;34.50
1472;BME280;963;42.644;23.336;2023-04-29T12:28:12;93978.66;;;18.12;34.59
1472;BME280;963;42.644;23.336;2023-04-29T12:30:38;93980.97;;;18.10;35.31
1472;BME280;963;42.644;23.336;2023-04-29T12:33:07;93955.91;;;18.07;35.46
1472;BME280;963;42.644;23.336;2023-04-29T12:35:33;93977.56;;;18.09;35.62
1472;BME280;963;42.644;23.336;2023-04-29T12:37:58;93949.41;;;17.89;35.79
1472;BME280;963;42.644;23.336;2023-04-29T12:40:24;93987.09;;;18.07;35.78
1472;BME280;963;42.644;23.336;2023-04-29T12:42:49;93958.84;;;18.13;35.86
1472;BME280;963;42.644;23.336;2023-04-29T12:47:55;93967.81;;;18.23;35.21
1472;BME280;963;42.644;23.336;2023-04-29T12:50:36;93967.00;;;18.26;35.10
1472;BME280;963;42.644;23.336;2023-04-29T12:53:06;93964.69;;;18.28;35.19
1472;BME280;963;42.644;23.336;2023-04-29T12:55:36;93964.75;;;18.24;35.87
1472;BME280;963;42.644;23.336;2023-04-29T12:58:03;93963.75;;;18.15;35.94
1472;BME280;963;42.644;23.336;2023-04-29T13:00:29;93971.53;;;18.05;36.80
1472;BME280;963;42.644;23.336;2023-04-29T13:02:55;93968.88;;;18.05;36.94
1472;BME280;963;42.644;23.336;2023-04-29T13:05:20;93972.09;;;17.97;37.09
1472;BME280;963;42.644;23.336;2023-04-29T13:07:47;93958.84;;;17.93;37.53
1472;BME280;963;42.644;23.336;2023-04-29T13:10:13;93965.88;;;18.03;37.40
1472;BME280;963;42.644;23.336;2023-04-29T13:12:38;93969.91;;;18.11;37.53
1472;BME280;963;42.644;23.336;2023-04-29T13:15:05;93960.25;;;18.21;37.37
1472;BME280;963;42.644;23.336;2023-04-29T13:17:32;93951.06;;;18.02;38.34
1472;BME280;963;42.644;23.336;2023-04-29T13:19:57;93961.16;;;18.11;38.21
1472;BME280;963;42.644;23.336;2023-04-29T13:22:22;93962.75;;;18.08;38.76
1472;BME280;963;42.644;23.336;2023-04-29T13:24:48;93959.47;;;18.21;39.01
1472;BME280;963;42.644;23.336;2023-04-29T13:27:14;93950.94;;;18.29;38.32
1472;BME280;963;42.644;23.336;2023-04-29T13:29:39;93953.38;;;18.20;38.39
1472;BME280;963;42.644;23.336;2023-04-29T13:32:05;93979.38;;;17.93;38.10
1472;BME280;963;42.644;23.336;2023-04-29T13:34:30;93944.50;;;18.07;37.93
1472;BME280;963;42.644;23.336;2023-04-29T13:36:56;93954.44;;;18.26;38.49
1472;BME280;963;42.644;23.336;2023-04-29T13:39:21;93950.81;;;18.36;37.84
1472;BME280;963;42.644;23.336;2023-04-29T13:41:47;93946.75;;;18.48;37.34
1472;BME280;963;42.644;23.336;2023-04-29T13:44:13;93946.00;;;18.48;37.35
1472;BME280;963;42.644;23.336;2023-04-29T13:46:38;93953.06;;;18.38;37.92
1472;BME280;963;42.644;23.336;2023-04-29T13:49:04;93941.88;;;18.27;37.88
1472;BME280;963;42.644;23.336;2023-04-29T13:51:29;93943.38;;;18.28;38.01
1472;BME280;963;42.644;23.336;2023-04-29T13:53:56;93939.63;;;18.25;37.63
1472;BME280;963;42.644;23.336;2023-04-29T13:56:21;93944.13;;;18.28;37.72